GLA weather

Glasgow International Airport
Glasgow, Scotland, United Kingdom

Public forecast

Using degrees Celsius for public forecast. Weather courtesy of forecast.io.

Current aviation weather report (METAR) for Glasgow International Airport

Retrieved 2019/11/13 10:50 UTC (10 minutes ago):

EGPF 131050Z AUTO 08005KT 9999 -RA FEW015 SCT030 01/00 Q0996

Aviation forecast (TAF) for Glasgow International Airport

Retrieved 2019/11/13 06:00 UTC (5 hours ago):

TAF EGPF 130502Z 1306/1406 09005KT 6000 FEW035 TEMPO 1306/1310 0600 FZFG PROB40 1306/1310 0300 FZFG BKN000 BECMG 1310/1313 9999 NSW PROB30 TEMPO 1400/1406 0300 FZFG BKN000